Main page
METAR-TAF:

METAR-TAF

Airports :

RAF Odiham

Odiham, England

latitude: 51-14N, longitude: 000-57W, elevation: 123 m

Current weather observation

The report was made 19 minutes ago, at 18:50 UTC
Wind 10 kt from the South/Southwest
Temperature 11°C
Humidity 87%
Pressure 1024 hPa
Visibility 10 km or more
Few clouds at a height of 4500 ft
Broken clouds at a height of 25000 ft

METAR: EGVO 131850Z 21010KT 9999 FEW045 BKN250 11/09 Q1024 BLU NOSIG

Time: 19:09 (19:09 UTC)

Forecast

The report was made 2 hours and 24 minutes ago, at 16:45 UTC
Forecast valid from 13 at 18 UTC to 14 at 06 UTC
Wind 10 kt from the South/Southwest
Visibility 10 km or more
Few clouds at a height of 2500 ft

TAF: EGVO 131645Z 1318/1406 20010KT 9999 FEW025

Weather observations and forecasts of more than 4000 airports (METAR and TAF reports).

The available stations are represented by yellow and red dots on the map.

Hover mouse over dot to see the name of the station.

Then click to see weather observations and forecasts.

To change the map : click on the green buttons with a black cross to zoom in, on the green button with a dash to zoom out, or on the green arrows for adjacent maps.


METAR-TAF: